createdAt,value
2023-01-04T00:02:02.974Z,19.01
2023-01-04T00:04:31.429Z,19.03
2023-01-04T00:06:59.751Z,19.06
2023-01-04T00:09:28.052Z,19.08
2023-01-04T00:11:56.362Z,19.11
2023-01-04T00:14:24.645Z,19.14
2023-01-04T00:16:52.939Z,19.18
2023-01-04T00:19:21.238Z,19.20
2023-01-04T00:21:49.558Z,19.24
2023-01-04T00:24:17.862Z,19.28
2023-01-04T00:26:46.161Z,19.32
2023-01-04T00:29:15.431Z,19.37
2023-01-04T00:31:45.612Z,19.42
2023-01-04T00:34:16.321Z,19.47
2023-01-04T00:36:45.539Z,19.52
2023-01-04T00:39:18.216Z,19.56
2023-01-04T00:41:58.694Z,19.62
2023-01-04T00:44:29.059Z,19.66
2023-01-04T00:46:58.581Z,19.72
2023-01-04T00:49:28.722Z,19.75
2023-01-04T00:51:58.644Z,19.79
2023-01-04T00:54:27.723Z,19.84
2023-01-04T00:56:56.676Z,19.89
2023-01-04T00:59:25.544Z,19.93
2023-01-04T01:01:55.121Z,19.95
2023-01-04T01:04:25.599Z,20.00
2023-01-04T01:06:54.684Z,20.03
2023-01-04T01:09:24.316Z,20.09
2023-01-04T01:11:54.895Z,20.15
2023-01-04T01:14:27.628Z,20.24
2023-01-04T01:16:58.229Z,20.31
2023-01-04T01:19:30.791Z,20.38
2023-01-04T01:21:59.870Z,20.43
2023-01-04T01:24:29.015Z,20.49
2023-01-04T01:26:58.079Z,20.56
2023-01-04T01:29:26.769Z,20.65
2023-01-04T01:31:55.453Z,20.73
2023-01-04T01:34:24.035Z,20.85
2023-01-04T01:36:52.342Z,20.95
2023-01-04T01:39:21.307Z,21.02
2023-01-04T01:41:49.823Z,21.08
2023-01-04T01:44:46.097Z,21.14
2023-01-04T01:47:51.645Z,21.22
2023-01-04T01:50:28.982Z,21.25
2023-01-04T01:53:00.632Z,21.29
2023-01-04T01:55:32.016Z,21.32
2023-01-04T01:58:02.149Z,21.34
2023-01-04T02:00:31.648Z,21.36
2023-01-04T02:03:02.782Z,21.38
2023-01-04T02:05:32.852Z,21.39
2023-01-04T02:08:02.261Z,21.43
2023-01-04T02:10:30.937Z,21.49
2023-01-04T02:13:01.243Z,21.57
2023-01-04T02:15:37.003Z,21.63
2023-01-04T02:18:16.358Z,21.69
2023-01-04T02:21:03.102Z,21.75
2023-01-04T02:23:52.509Z,21.83
2023-01-04T02:26:59.336Z,21.89
2023-01-04T02:29:54.750Z,21.99
2023-01-04T02:33:06.083Z,22.09
2023-01-04T02:35:59.604Z,22.19
2023-01-04T02:39:01.020Z,22.26
2023-01-04T02:41:48.607Z,22.34
2023-01-04T02:44:58.437Z,22.39
2023-01-04T02:47:49.253Z,22.47
2023-01-04T02:50:34.437Z,22.54
2023-01-04T02:53:03.123Z,22.64
2023-01-04T02:55:57.799Z,22.73
2023-01-04T02:58:33.797Z,22.84
2023-01-04T03:01:43.772Z,22.95
2023-01-04T03:04:55.507Z,23.11
2023-01-04T03:07:36.416Z,23.21
2023-01-04T03:10:20.166Z,23.29
2023-01-04T03:12:56.168Z,23.37
2023-01-04T03:15:32.187Z,23.46
2023-01-04T03:18:24.072Z,23.54
2023-01-04T03:20:55.470Z,23.62
2023-01-04T03:23:47.309Z,23.67
2023-01-04T03:26:41.196Z,23.75
2023-01-04T03:29:47.552Z,23.83
2023-01-04T03:32:42.521Z,23.92
2023-01-04T03:35:28.996Z,24.01
2023-01-04T03:38:35.942Z,24.11
2023-01-04T03:41:51.570Z,24.20
2023-01-04T03:44:49.299Z,24.26
2023-01-04T03:47:54.125Z,24.37
2023-01-04T03:50:34.715Z,24.46
2023-01-04T03:53:04.661Z,24.56
2023-01-04T03:55:34.586Z,24.60
2023-01-04T03:58:03.157Z,24.68
2023-01-04T04:00:32.019Z,24.74
2023-01-04T04:03:08.296Z,24.82
2023-01-04T04:06:01.115Z,24.92
2023-01-04T04:08:29.991Z,25.03
2023-01-04T04:11:21.473Z,25.10
2023-01-04T04:13:51.495Z,25.19
2023-01-04T04:16:19.893Z,25.27
2023-01-04T04:18:49.115Z,25.35
2023-01-04T04:21:17.506Z,25.41
2023-01-04T04:23:45.953Z,25.51
2023-01-04T04:26:14.299Z,25.56
2023-01-04T04:28:43.199Z,25.62
2023-01-04T04:31:11.599Z,25.68
2023-01-04T04:33:40.902Z,25.76
2023-01-04T04:36:10.033Z,25.84
2023-01-04T04:38:38.399Z,25.92
2023-01-04T04:41:30.155Z,26.00
2023-01-04T04:43:59.790Z,26.08
2023-01-04T04:46:28.305Z,26.13
2023-01-04T04:48:56.812Z,26.20
2023-01-04T04:51:25.222Z,26.27
2023-01-04T04:53:54.017Z,26.34
2023-01-04T04:56:22.390Z,26.39
2023-01-04T04:58:51.546Z,26.44
2023-01-04T05:01:20.679Z,26.50
2023-01-04T05:03:49.352Z,26.54
2023-01-04T05:06:17.713Z,26.58
2023-01-04T05:08:46.017Z,26.63
2023-01-04T05:11:15.540Z,26.66
2023-01-04T05:13:43.890Z,26.71
2023-01-04T05:16:12.246Z,26.74
2023-01-04T05:18:40.637Z,26.78
2023-01-04T05:21:09.007Z,26.81
2023-01-04T05:23:37.305Z,26.86
2023-01-04T05:26:06.121Z,26.90
2023-01-04T05:28:34.444Z,26.93
2023-01-04T05:31:02.763Z,26.96
2023-01-04T05:33:33.656Z,26.99
2023-01-04T05:36:04.781Z,27.02
2023-01-04T05:38:34.463Z,27.03
2023-01-04T05:41:02.847Z,27.05
2023-01-04T05:43:31.211Z,27.08
2023-01-04T05:45:59.572Z,27.13
2023-01-04T05:48:27.905Z,27.16
2023-01-04T05:50:56.252Z,27.18
2023-01-04T05:53:24.558Z,27.23
2023-01-04T05:55:52.991Z,27.25
2023-01-04T05:58:21.274Z,27.30
2023-01-04T06:00:49.619Z,27.34
2023-01-04T06:03:18.134Z,27.38
2023-01-04T06:05:51.307Z,27.42
2023-01-04T06:08:19.860Z,27.45
2023-01-04T06:10:55.291Z,27.46
2023-01-04T06:13:23.717Z,27.46
2023-01-04T06:15:52.199Z,27.49
2023-01-04T06:18:20.511Z,27.50
2023-01-04T06:20:51.921Z,27.55
2023-01-04T06:23:20.233Z,27.64
2023-01-04T06:25:48.533Z,27.70
2023-01-04T06:28:16.986Z,27.75
2023-01-04T06:30:45.262Z,27.76
2023-01-04T06:33:13.701Z,27.78
2023-01-04T06:35:41.975Z,27.82
2023-01-04T06:38:10.314Z,27.88
2023-01-04T06:40:38.607Z,27.91
2023-01-04T06:43:06.890Z,27.93
2023-01-04T06:45:35.172Z,27.95
2023-01-04T06:48:08.737Z,27.94
2023-01-04T06:50:38.140Z,27.97
2023-01-04T06:53:06.880Z,27.98
2023-01-04T06:55:35.198Z,28.00
2023-01-04T06:58:03.555Z,27.99
2023-01-04T07:00:31.920Z,28.00
2023-01-04T07:03:14.464Z,28.00
2023-01-04T07:05:44.944Z,28.00
2023-01-04T07:08:14.366Z,28.01
2023-01-04T07:10:43.770Z,28.01
2023-01-04T07:13:12.215Z,28.01
2023-01-04T07:15:41.123Z,28.02
2023-01-04T07:18:11.441Z,28.01
2023-01-04T07:20:40.202Z,28.01
2023-01-04T07:23:09.587Z,28.03
2023-01-04T07:25:38.052Z,28.01
2023-01-04T07:28:06.518Z,28.04
2023-01-04T07:30:35.001Z,28.07
2023-01-04T07:33:03.426Z,28.06
2023-01-04T07:35:31.832Z,28.07
2023-01-04T07:38:00.202Z,28.08
2023-01-04T07:40:28.966Z,28.08
2023-01-04T07:43:01.514Z,28.08
2023-01-04T07:45:29.898Z,28.08
2023-01-04T07:47:59.347Z,28.09
2023-01-04T07:50:27.819Z,28.08
2023-01-04T07:52:57.260Z,28.08
2023-01-04T07:55:25.631Z,28.06
2023-01-04T07:57:55.366Z,28.06
2023-01-04T08:00:23.762Z,28.06
2023-01-04T08:02:52.198Z,28.04
2023-01-04T08:05:20.768Z,28.05
2023-01-04T08:07:49.099Z,28.04
2023-01-04T08:10:17.400Z,28.05
2023-01-04T08:12:45.761Z,28.05
2023-01-04T08:15:15.807Z,28.04
2023-01-04T08:17:44.192Z,28.01
2023-01-04T08:20:13.009Z,28.01
2023-01-04T08:22:41.458Z,28.00
2023-01-04T08:25:10.225Z,27.98
2023-01-04T08:27:38.713Z,27.96
2023-01-04T08:30:07.591Z,27.95
2023-01-04T08:32:35.907Z,27.93
2023-01-04T08:35:04.380Z,27.92
2023-01-04T08:37:33.027Z,27.92
2023-01-04T08:40:01.371Z,27.88
2023-01-04T08:42:31.812Z,27.87
2023-01-04T08:45:02.262Z,27.84
2023-01-04T08:47:31.919Z,27.83
2023-01-04T08:50:06.630Z,27.80
2023-01-04T08:52:38.150Z,27.78
2023-01-04T08:55:12.288Z,27.76
2023-01-04T08:57:41.162Z,27.73
2023-01-04T09:00:10.679Z,27.71
2023-01-04T09:02:39.133Z,27.67
2023-01-04T09:05:08.275Z,27.63
2023-01-04T09:07:36.660Z,27.59
2023-01-04T09:10:05.044Z,27.55
2023-01-04T09:12:33.361Z,27.51
2023-01-04T09:15:01.701Z,27.47
2023-01-04T09:17:30.105Z,27.43
2023-01-04T09:19:58.699Z,27.38
2023-01-04T09:22:27.059Z,27.34
2023-01-04T09:24:56.164Z,27.30
2023-01-04T09:27:24.481Z,27.23
2023-01-04T09:29:52.805Z,27.17
2023-01-04T09:32:21.121Z,27.12
2023-01-04T09:34:49.802Z,27.04
2023-01-04T09:37:18.130Z,26.98
2023-01-04T09:39:48.190Z,26.92
2023-01-04T09:42:35.083Z,26.85
2023-01-04T09:45:25.097Z,26.79
2023-01-04T09:48:11.580Z,26.72
2023-01-04T09:51:03.095Z,26.66
2023-01-04T09:53:44.243Z,26.59
2023-01-04T09:56:29.587Z,26.57
2023-01-04T09:58:59.300Z,26.55
2023-01-04T10:01:34.602Z,26.51
2023-01-04T10:04:29.099Z,26.48
2023-01-04T10:07:04.700Z,26.45
2023-01-04T10:09:34.938Z,26.41
2023-01-04T10:12:10.519Z,26.40
2023-01-04T10:15:17.929Z,26.38
2023-01-04T10:19:16.979Z,26.34
2023-01-04T10:24:08.358Z,26.25
2023-01-04T10:26:47.806Z,26.18
2023-01-04T10:29:37.377Z,26.13
2023-01-04T10:32:31.695Z,26.08
2023-01-04T10:35:00.483Z,26.01
2023-01-04T10:37:37.207Z,25.95
2023-01-04T10:40:15.751Z,25.88
2023-01-04T10:43:06.156Z,25.83
2023-01-04T10:45:42.491Z,25.74
2023-01-04T10:48:17.472Z,25.67
2023-01-04T10:51:05.048Z,25.59
2023-01-04T10:53:45.579Z,25.51
2023-01-04T10:56:29.431Z,25.44
2023-01-04T10:59:06.921Z,25.36
2023-01-04T11:01:38.373Z,25.27
2023-01-04T11:04:17.113Z,25.20
2023-01-04T11:07:09.178Z,25.11
2023-01-04T11:09:54.965Z,25.03
2023-01-04T11:12:25.001Z,24.95
2023-01-04T11:14:54.191Z,24.88
2023-01-04T11:17:25.533Z,24.80
2023-01-04T11:19:55.743Z,24.74
2023-01-04T11:22:33.298Z,24.67
2023-01-04T11:25:36.458Z,24.62
2023-01-04T11:28:28.224Z,24.53
2023-01-04T11:31:34.006Z,24.49
2023-01-04T11:34:04.760Z,24.43
2023-01-04T11:36:33.033Z,24.38
2023-01-04T11:39:01.634Z,24.33
2023-01-04T11:41:30.194Z,24.29
2023-01-04T11:44:04.771Z,24.24
2023-01-04T11:46:35.167Z,24.19
2023-01-04T11:49:03.517Z,24.15
2023-01-04T11:51:32.353Z,24.09
2023-01-04T11:54:06.527Z,24.02
2023-01-04T11:56:37.362Z,23.96
2023-01-04T11:59:17.945Z,23.89
2023-01-04T12:01:52.659Z,23.83
2023-01-04T12:04:27.754Z,23.77
2023-01-04T12:07:02.821Z,23.70
2023-01-04T12:09:33.191Z,23.63
2023-01-04T12:12:02.599Z,23.57
2023-01-04T12:14:36.882Z,23.54
2023-01-04T12:17:43.095Z,23.49
2023-01-04T12:20:19.632Z,23.44
2023-01-04T12:22:48.569Z,23.41
2023-01-04T12:25:49.663Z,23.37
2023-01-04T12:28:32.976Z,23.32
2023-01-04T12:31:47.609Z,23.28
2023-01-04T12:34:26.873Z,23.22
2023-01-04T12:37:05.200Z,23.16
2023-01-04T12:40:00.633Z,23.10
2023-01-04T12:42:28.965Z,23.03
2023-01-04T12:44:59.677Z,22.97
2023-01-04T12:47:58.284Z,22.93
2023-01-04T12:50:30.272Z,22.87
2023-01-04T12:53:30.077Z,22.83
2023-01-04T12:55:56.737Z,22.77
2023-01-04T13:01:26.434Z,22.73
2023-01-04T13:04:05.602Z,22.71
2023-01-04T13:06:42.890Z,22.69
2023-01-04T13:09:24.631Z,22.68
2023-01-04T13:12:21.123Z,22.64
2023-01-04T13:14:53.909Z,22.60
2023-01-04T13:17:24.932Z,22.58
2023-01-04T13:19:53.355Z,22.55
2023-01-04T13:22:31.520Z,22.51
2023-01-04T13:25:02.676Z,22.48
2023-01-04T13:27:30.990Z,22.45
2023-01-04T13:29:59.314Z,22.43
2023-01-04T13:32:47.047Z,22.43
2023-01-04T13:35:23.437Z,22.43
2023-01-04T13:37:52.928Z,22.45
2023-01-04T13:40:29.870Z,22.47
2023-01-04T13:43:42.498Z,22.51
2023-01-04T13:46:36.577Z,22.54
2023-01-04T13:49:04.999Z,22.57
2023-01-04T13:51:38.553Z,22.61
2023-01-04T13:54:19.070Z,22.64
2023-01-04T13:56:53.476Z,22.68
2023-01-04T13:59:24.253Z,22.72
2023-01-04T14:01:54.090Z,22.75
2023-01-04T14:04:32.533Z,22.79
2023-01-04T14:07:02.734Z,22.81
2023-01-04T14:09:37.893Z,22.84
2023-01-04T14:12:18.903Z,22.87
2023-01-04T14:15:05.225Z,22.88
2023-01-04T14:17:44.512Z,22.90
2023-01-04T14:20:23.668Z,22.91
2023-01-04T14:22:59.399Z,22.93
2023-01-04T14:25:37.731Z,22.95
2023-01-04T14:28:25.499Z,22.94
2023-01-04T14:31:01.060Z,22.91
2023-01-04T14:33:46.185Z,22.88
2023-01-04T14:36:33.987Z,22.86
2023-01-04T14:39:08.240Z,22.83
2023-01-04T14:41:42.836Z,22.79
2023-01-04T14:44:14.495Z,22.76
2023-01-04T14:46:47.873Z,22.72
2023-01-04T14:49:17.307Z,22.69
2023-01-04T14:51:55.438Z,22.65
2023-01-04T14:54:25.795Z,22.62
2023-01-04T14:56:55.666Z,22.58
2023-01-04T14:59:24.958Z,22.56
2023-01-04T15:01:55.111Z,22.54
2023-01-04T15:04:24.096Z,22.50
2023-01-04T15:06:58.125Z,22.48
2023-01-04T15:09:27.289Z,22.44
2023-01-04T15:11:55.857Z,22.42
2023-01-04T15:14:24.498Z,22.41
2023-01-04T15:16:52.803Z,22.38
2023-01-04T15:19:21.157Z,22.36
2023-01-04T15:21:49.457Z,22.33
2023-01-04T15:24:18.300Z,22.29
2023-01-04T15:26:46.745Z,22.26
2023-01-04T15:29:15.230Z,22.23
2023-01-04T15:31:44.744Z,22.18
2023-01-04T15:34:15.939Z,22.14
2023-01-04T15:36:44.547Z,22.12
2023-01-04T15:39:15.972Z,22.09
2023-01-04T15:42:02.805Z,22.06
2023-01-04T15:44:31.076Z,22.05
2023-01-04T15:47:00.307Z,22.03
2023-01-04T15:49:31.945Z,22.00
2023-01-04T15:52:00.328Z,21.99
2023-01-04T15:54:29.605Z,21.95
2023-01-04T15:56:58.343Z,21.93
2023-01-04T15:59:27.069Z,21.91
2023-01-04T16:01:55.637Z,21.89
2023-01-04T16:04:24.119Z,21.88
2023-01-04T16:06:52.582Z,21.85
2023-01-04T16:09:20.968Z,21.83
2023-01-04T16:12:07.471Z,21.80
2023-01-04T16:14:35.825Z,21.80
2023-01-04T16:17:04.136Z,21.76
2023-01-04T16:19:35.228Z,21.75
2023-01-04T16:22:03.785Z,21.74
2023-01-04T16:27:20.915Z,21.73
2023-01-04T16:29:53.637Z,21.72
2023-01-04T16:32:22.047Z,21.69
2023-01-04T16:34:52.065Z,21.69
2023-01-04T16:37:20.561Z,21.67
2023-01-04T16:40:08.477Z,21.67
2023-01-04T16:42:38.471Z,21.64
2023-01-04T16:45:08.117Z,21.62
2023-01-04T16:47:42.109Z,21.58
2023-01-04T16:50:13.139Z,21.57
2023-01-04T16:52:41.520Z,21.53
2023-01-04T16:55:10.569Z,21.48
2023-01-04T16:57:38.890Z,21.45
2023-01-04T17:00:07.838Z,21.40
2023-01-04T17:02:36.178Z,21.34
2023-01-04T17:05:05.375Z,21.31
2023-01-04T17:07:33.773Z,21.26
2023-01-04T17:10:02.285Z,21.23
2023-01-04T17:12:48.108Z,21.20
2023-01-04T17:18:06.926Z,21.20
2023-01-04T17:20:35.310Z,21.20
2023-01-04T17:23:03.615Z,21.21
2023-01-04T17:25:32.401Z,21.21
2023-01-04T17:28:00.720Z,21.22
2023-01-04T17:30:29.009Z,21.21
2023-01-04T17:32:57.321Z,21.23
2023-01-04T17:35:25.630Z,21.23
2023-01-04T17:37:53.995Z,21.22
2023-01-04T17:40:23.512Z,21.23
2023-01-04T17:42:52.189Z,21.23
2023-01-04T17:45:20.560Z,21.22
2023-01-04T17:47:49.187Z,21.22
2023-01-04T17:50:18.352Z,21.21
2023-01-04T17:52:48.583Z,21.20
2023-01-04T17:55:16.981Z,21.18
2023-01-04T17:57:45.552Z,21.16
2023-01-04T18:00:15.779Z,21.14
2023-01-04T18:02:44.570Z,21.11
2023-01-04T18:05:13.036Z,21.10
2023-01-04T18:07:41.485Z,21.09
2023-01-04T18:10:20.579Z,21.07
2023-01-04T18:12:55.156Z,21.06
2023-01-04T18:15:23.453Z,21.04
2023-01-04T18:17:51.742Z,21.01
2023-01-04T18:20:24.934Z,20.99
2023-01-04T18:22:54.268Z,20.96
2023-01-04T18:25:22.587Z,20.94
2023-01-04T18:27:50.875Z,20.93
2023-01-04T18:30:19.475Z,20.92
2023-01-04T18:32:47.807Z,20.87
2023-01-04T18:35:16.158Z,20.86
2023-01-04T18:37:46.705Z,20.84
2023-01-04T18:40:15.111Z,20.81
2023-01-04T18:42:50.199Z,20.78
2023-01-04T18:45:19.709Z,20.76
2023-01-04T18:47:50.875Z,20.73
2023-01-04T18:50:19.630Z,20.70
2023-01-04T18:52:47.897Z,20.65
2023-01-04T18:55:16.397Z,20.62
2023-01-04T18:57:44.713Z,20.58
2023-01-04T19:00:13.713Z,20.54
2023-01-04T19:02:42.342Z,20.51
2023-01-04T19:05:12.180Z,20.49
2023-01-04T19:07:41.163Z,20.46
2023-01-04T19:10:10.154Z,20.41
2023-01-04T19:12:39.730Z,20.38
2023-01-04T19:15:09.054Z,20.34
2023-01-04T19:17:37.733Z,20.30
2023-01-04T19:20:06.926Z,20.27
2023-01-04T19:22:35.756Z,20.22
2023-01-04T19:25:04.143Z,20.19
2023-01-04T19:27:32.591Z,20.16
2023-01-04T19:30:00.976Z,20.13
2023-01-04T19:32:33.478Z,20.08
2023-01-04T19:35:02.391Z,20.04
2023-01-04T19:37:31.252Z,20.00
2023-01-04T19:39:59.553Z,19.97
2023-01-04T19:42:27.849Z,19.93
2023-01-04T19:44:56.163Z,19.90
2023-01-04T19:47:24.901Z,19.88
2023-01-04T19:49:53.221Z,19.85
2023-01-04T19:52:21.533Z,19.83
2023-01-04T19:54:49.834Z,19.80
2023-01-04T19:57:18.233Z,19.78
2023-01-04T19:59:46.531Z,19.74
2023-01-04T20:02:15.020Z,19.69
2023-01-04T20:04:43.741Z,19.66
2023-01-04T20:07:12.063Z,19.64
2023-01-04T20:09:40.372Z,19.63
2023-01-04T20:12:08.900Z,19.60
2023-01-04T20:14:37.179Z,19.55
2023-01-04T20:17:05.568Z,19.54
2023-01-04T20:19:33.927Z,19.51
2023-01-04T20:22:02.317Z,19.49
2023-01-04T20:24:30.702Z,19.45
2023-01-04T20:26:59.133Z,19.43
2023-01-04T20:29:27.481Z,19.39
2023-01-04T20:31:56.834Z,19.38
2023-01-04T20:34:25.087Z,19.35
2023-01-04T20:39:38.290Z,19.31
2023-01-04T20:42:24.822Z,19.28
2023-01-04T20:44:53.156Z,19.25
2023-01-04T20:47:21.636Z,19.22
2023-01-04T20:49:50.000Z,19.22
2023-01-04T20:52:18.308Z,19.21
2023-01-04T20:54:50.626Z,19.19
2023-01-04T20:57:18.918Z,19.17
2023-01-04T20:59:47.509Z,19.14
2023-01-04T21:02:16.072Z,19.12
2023-01-04T21:04:47.048Z,19.10
2023-01-04T21:07:15.395Z,19.10
2023-01-04T21:09:43.714Z,19.08
2023-01-04T21:12:11.988Z,19.08
2023-01-04T21:14:41.027Z,19.08
2023-01-04T21:17:09.364Z,19.06
2023-01-04T21:19:37.699Z,19.06
2023-01-04T21:22:06.002Z,19.06
2023-01-04T21:24:35.232Z,19.05
2023-01-04T21:27:03.624Z,19.03
2023-01-04T21:29:31.974Z,19.01
2023-01-04T21:32:00.330Z,18.99
2023-01-04T21:34:29.024Z,18.97
2023-01-04T21:36:57.437Z,18.94
2023-01-04T21:39:25.731Z,18.95
2023-01-04T21:41:57.040Z,18.93
2023-01-04T21:44:25.397Z,18.92
2023-01-04T21:46:53.823Z,18.92
2023-01-04T21:49:22.165Z,18.92
2023-01-04T21:51:50.492Z,18.93
2023-01-04T21:54:18.760Z,18.90
2023-01-04T21:56:47.381Z,18.89
2023-01-04T21:59:15.733Z,18.87
2023-01-04T22:01:44.264Z,18.86
2023-01-04T22:04:12.723Z,18.82
2023-01-04T22:06:42.460Z,18.80
2023-01-04T22:09:10.888Z,18.77
2023-01-04T22:11:41.549Z,18.73
2023-01-04T22:14:09.923Z,18.70
2023-01-04T22:16:38.524Z,18.67
2023-01-04T22:19:06.854Z,18.65
2023-01-04T22:21:35.127Z,18.65
2023-01-04T22:24:03.488Z,18.65
2023-01-04T22:26:31.810Z,18.64
2023-01-04T22:29:00.143Z,18.61
2023-01-04T22:31:28.482Z,18.60
2023-01-04T22:33:57.129Z,18.58
2023-01-04T22:36:26.010Z,18.56
2023-01-04T22:38:56.060Z,18.53
2023-01-04T22:41:29.281Z,18.51
2023-01-04T22:44:02.392Z,18.49
2023-01-04T22:46:32.256Z,18.48
2023-01-04T22:49:01.958Z,18.47
2023-01-04T22:51:31.458Z,18.46
2023-01-04T22:54:02.388Z,18.46
2023-01-04T22:56:30.897Z,18.44
2023-01-04T22:59:00.158Z,18.44
2023-01-04T23:01:31.458Z,18.43
2023-01-04T23:04:01.874Z,18.41
2023-01-04T23:06:31.938Z,18.39
2023-01-04T23:09:02.964Z,18.38
2023-01-04T23:11:33.253Z,18.36
2023-01-04T23:14:04.429Z,18.36
2023-01-04T23:16:33.644Z,18.34
2023-01-04T23:19:03.450Z,18.32
2023-01-04T23:21:32.783Z,18.30
2023-01-04T23:24:01.949Z,18.29
2023-01-04T23:26:32.435Z,18.29
2023-01-04T23:29:02.130Z,18.29
2023-01-04T23:31:32.792Z,18.30
2023-01-04T23:34:03.637Z,18.31
2023-01-04T23:36:35.074Z,18.34
2023-01-04T23:39:06.941Z,18.34
2023-01-04T23:41:48.199Z,18.35
2023-01-04T23:44:25.084Z,18.37
2023-01-04T23:46:56.472Z,18.38
2023-01-04T23:49:26.789Z,18.40
2023-01-04T23:51:55.434Z,18.41
2023-01-04T23:54:24.698Z,18.43
2023-01-04T23:56:53.283Z,18.44
2023-01-04T23:59:22.776Z,18.45
